Weather at Cairns International Airport

Public forecast

Using degrees Celsius for public forecast. Weather courtesy of forecast.io.

Current aviation weather report (METAR) for Cairns International Airport

Retrieved 2021/03/04 04:30 UTC (0 seconds ago):

YBCS 040430Z AUTO 16011KT 9999 // NCD 33/19 Q1000

Aviation forecast (TAF) for Cairns International Airport

Forecast is more than 6 hours old.

Retrieved 2021/03/03 21:35 UTC (7 hours ago):

TAF YBCS 032002Z 0321/0418 18006KT 9999 FEW030 FM040300 16012KT 9999 FEW030 FM041200 20005KT 9999 FEW030